Time;durP1;ratioP1;P1;durP2;ratioP2;P2;SDS_P1;SDS_P2;PMS_P1;PMS_P2;Temp;Humidity;BMP_temperature;BMP_pressure;BME280_temperature;BME280_humidity;BME280_pressure;Samples;Min_cycle;Max_cycle;Signal;HPM_P1;HPM_P2
2022/06/27 00:03:36;;;;;;;2.83;2.53;;;23.40;88.80;;;;;;21093094;28;20654;-78
2022/06/27 00:13:37;;;;;;;4.77;3.23;;;23.40;89.60;;;;;;21111950;28;20230;-63
2022/06/27 00:23:39;;;;;;;2.70;2.50;;;23.30;89.90;;;;;;21110821;28;20579;-75
2022/06/27 00:33:41;;;;;;;2.63;2.43;;;23.30;90.00;;;;;;21092720;28;20226;-71
2022/06/27 00:43:43;;;;;;;3.30;2.40;;;23.30;89.40;;;;;;21086967;28;20230;-71
2022/06/27 00:53:45;;;;;;;3.37;3.07;;;23.30;89.50;;;;;;21086427;28;20230;-78
2022/06/27 01:03:47;;;;;;;8.03;3.83;;;23.10;90.40;;;;;;21085895;28;20202;-80
2022/06/27 01:13:49;;;;;;;6.20;4.33;;;22.80;91.70;;;;;;21085073;28;20235;-77
2022/06/27 01:23:52;;;;;;;6.07;5.00;;;22.50;92.70;;;;;;21084532;28;20206;-69
2022/06/27 01:33:54;;;;;;;6.70;5.40;;;22.30;93.30;;;;;;21083634;28;20241;-75
2022/06/27 01:43:56;;;;;;;6.53;5.93;;;22.20;93.90;;;;;;21082255;28;20709;-70
2022/06/27 01:53:57;;;;;;;6.10;5.40;;;22.10;94.40;;;;;;21081115;28;20238;-77
2022/06/27 02:03:59;;;;;;;6.30;5.70;;;22.00;94.80;;;;;;21063413;28;20233;-77
2022/06/27 02:14:01;;;;;;;6.60;6.00;;;21.90;95.30;;;;;;21080179;28;20717;-76
2022/06/27 02:24:03;;;;;;;10.00;6.47;;;21.70;96.00;;;;;;21080391;28;20203;-74
2022/06/27 02:34:05;;;;;;;6.93;6.07;;;21.40;97.00;;;;;;21079573;28;20597;-73
2022/06/27 02:44:11;;;;;;;8.07;7.27;;;21.30;97.60;;;;;;21079639;28;20223;-67
2022/06/27 02:54:20;;;;;;;8.90;7.53;;;21.30;98.30;;;;;;21080740;28;20241;-70
2022/06/27 03:04:22;;;;;;;12.10;8.03;;;21.20;98.70;;;;;;21089443;28;20255;-75
2022/06/27 03:14:23;;;;;;;10.23;8.43;;;21.20;99.20;;;;;;21094814;28;20237;-66
2022/06/27 03:24:25;;;;;;;9.80;7.97;;;21.20;99.80;;;;;;21093981;28;20217;-69
2022/06/27 03:34:27;;;;;;;10.03;7.67;;;21.20;99.90;;;;;;21093404;28;20696;-70
2022/06/27 03:44:29;;;;;;;10.23;7.30;;;21.10;99.90;;;;;;21091813;28;20281;-68
2022/06/27 03:54:30;;;;;;;7.87;6.83;;;21.10;99.90;;;;;;21091312;28;20229;-65
2022/06/27 04:04:32;;;;;;;7.57;6.87;;;21.10;99.90;;;;;;21090612;28;20207;-75
2022/06/27 04:14:34;;;;;;;8.27;7.47;;;21.10;99.90;;;;;;21088992;28;20267;-72
2022/06/27 04:24:38;;;;;;;8.43;7.30;;;21.00;99.90;;;;;;21086917;28;20206;-74
2022/06/27 04:34:40;;;;;;;7.90;7.10;;;21.00;99.90;;;;;;21088371;28;20233;-72
2022/06/27 04:44:42;;;;;;;14.20;6.67;;;21.10;99.90;;;;;;21090401;28;20253;-74
2022/06/27 04:54:44;;;;;;;7.63;6.20;;;21.10;99.90;;;;;;21086602;28;20230;-78
2022/06/27 05:04:45;;;;;;;7.50;5.63;;;21.20;99.90;;;;;;21086612;28;20213;-73
2022/06/27 05:14:49;;;;;;;6.33;5.57;;;21.40;99.90;;;;;;21068379;28;20321;-74
2022/06/27 05:24:51;;;;;;;6.10;5.33;;;21.30;99.90;;;;;;21081266;28;20593;-74
2022/06/27 05:34:52;;;;;;;7.77;5.50;;;21.40;99.90;;;;;;21102360;28;20236;-75
2022/06/27 05:44:55;;;;;;;5.93;4.63;;;21.50;99.90;;;;;;21083588;28;20234;-74
2022/06/27 05:54:59;;;;;;;4.20;3.60;;;21.60;99.90;;;;;;21082394;28;20226;-75
2022/06/27 06:05:01;;;;;;;9.27;2.87;;;21.70;99.90;;;;;;21080969;28;20210;-73
2022/06/27 06:15:04;;;;;;;6.97;3.07;;;21.80;99.70;;;;;;21080718;28;20245;-72
2022/06/27 06:25:07;;;;;;;3.97;3.00;;;21.70;99.50;;;;;;21079798;28;20210;-75
2022/06/27 06:35:08;;;;;;;4.87;3.43;;;21.80;99.30;;;;;;21078980;28;20266;-74
2022/06/27 06:45:10;;;;;;;4.30;3.53;;;21.70;98.80;;;;;;21079734;28;20601;-75
2022/06/27 06:55:13;;;;;;;4.37;3.70;;;21.70;99.00;;;;;;21078110;28;20234;-72
2022/06/27 07:05:16;;;;;;;6.47;3.60;;;21.90;98.60;;;;;;21077703;28;20267;-70
2022/06/27 07:15:18;;;;;;;5.70;3.97;;;21.90;98.30;;;;;;21077628;28;20282;-71
2022/06/27 07:25:20;;;;;;;4.40;4.00;;;21.90;98.00;;;;;;21076516;28;20260;-67
2022/06/27 07:35:24;;;;;;;9.23;5.10;;;21.90;98.10;;;;;;21076384;28;20218;-68
2022/06/27 07:45:26;;;;;;;4.03;3.67;;;22.10;97.90;;;;;;21076902;28;20238;-64
2022/06/27 07:55:28;;;;;;;4.37;3.77;;;22.20;97.80;;;;;;21090534;28;20210;-71
2022/06/27 08:05:30;;;;;;;6.50;4.70;;;22.20;97.90;;;;;;21088632;28;20252;-65
2022/06/27 08:15:32;;;;;;;8.23;5.70;;;22.40;97.60;;;;;;21089500;28;20210;-63
2022/06/27 08:25:35;;;;;;;7.10;6.10;;;22.50;97.00;;;;;;21087209;28;20203;-67
2022/06/27 08:35:39;;;;;;;10.87;5.20;;;22.60;96.60;;;;;;21087152;28;20214;-64
2022/06/27 08:45:43;;;;;;;7.90;5.17;;;22.60;96.50;;;;;;21087398;28;20234;-64
2022/06/27 08:55:46;;;;;;;8.10;5.70;;;22.90;96.10;;;;;;21086617;28;20245;-64
2022/06/27 09:06:05;;;;;;;5.80;5.10;;;23.00;95.70;;;;;;21085615;28;20230;-68
2022/06/27 09:16:07;;;;;;;6.10;5.50;;;23.30;95.40;;;;;;21085381;28;20822;-65
2022/06/27 09:26:23;;;;;;;5.57;4.83;;;23.20;95.00;;;;;;21083740;28;20250;-67
2022/06/27 09:36:28;;;;;;;5.80;4.97;;;23.10;95.00;;;;;;21082396;28;20217;-64
2022/06/27 09:46:36;;;;;;;6.20;4.70;;;23.10;94.90;;;;;;21081671;28;20784;-66
2022/06/27 09:56:41;;;;;;;6.93;5.60;;;23.10;94.70;;;;;;21081064;28;20207;-63
2022/06/27 10:06:43;;;;;;;11.73;5.77;;;23.00;94.70;;;;;;21062596;28;20276;-73
2022/06/27 10:16:55;;;;;;;7.27;5.40;;;22.90;95.10;;;;;;21079556;28;20206;-71
2022/06/27 10:27:02;;;;;;;7.83;4.93;;;22.70;95.10;;;;;;21079166;28;20323;-72
2022/06/27 10:37:25;;;;;;;4.80;4.17;;;22.80;95.30;;;;;;21078960;28;20592;-72
2022/06/27 10:47:33;;;;;;;4.53;4.13;;;23.10;95.50;;;;;;21077633;28;20242;-73
2022/06/27 10:57:39;;;;;;;4.20;3.40;;;23.30;95.10;;;;;;21077582;28;20215;-72
2022/06/27 11:07:41;;;;;;;10.97;3.43;;;23.50;94.20;;;;;;21099961;28;20263;-74
2022/06/27 11:17:44;;;;;;;3.03;2.50;;;23.50;94.20;;;;;;21080589;28;20210;-69
2022/06/27 11:27:52;;;;;;;5.53;3.30;;;23.60;93.60;;;;;;21091512;28;20238;-70
2022/06/27 11:37:54;;;;;;;4.23;3.33;;;23.40;93.50;;;;;;21092555;28;20202;-69
2022/06/27 11:47:56;;;;;;;4.50;3.50;;;23.40;93.60;;;;;;21091015;28;20249;-68
2022/06/27 11:58:01;;;;;;;3.57;2.77;;;23.50;93.50;;;;;;21090437;28;20248;-72
2022/06/27 12:08:11;;;;;;;4.53;2.40;;;23.60;93.60;;;;;;21072398;28;20237;-72
2022/06/27 12:18:13;;;;;;;2.80;2.50;;;23.60;93.10;;;;;;21091069;28;20206;-71
2022/06/27 12:28:15;;;;;;;2.93;2.40;;;23.70;92.40;;;;;;21101269;28;20233;-72
2022/06/27 12:38:17;;;;;;;2.57;1.97;;;24.10;92.20;;;;;;21088936;28;20214;-71
2022/06/27 12:48:19;;;;;;;2.10;1.90;;;24.20;91.10;;;;;;21086950;28;20697;-75
2022/06/27 12:58:21;;;;;;;6.27;1.87;;;24.30;90.20;;;;;;21086614;28;20232;-75
2022/06/27 13:08:23;;;;;;;3.30;1.80;;;24.40;88.70;;;;;;21085392;28;20698;-74
2022/06/27 13:18:25;;;;;;;3.00;2.30;;;24.50;87.90;;;;;;21084817;28;20256;-76
2022/06/27 13:28:28;;;;;;;4.60;2.53;;;24.50;87.60;;;;;;21084113;28;20581;-76
2022/06/27 13:38:29;;;;;;;5.73;2.60;;;24.60;87.70;;;;;;21080988;28;20207;-74
2022/06/27 13:48:31;;;;;;;6.80;3.03;;;24.50;88.50;;;;;;21081689;28;20246;-75
2022/06/27 13:58:34;;;;;;;4.37;2.90;;;24.30;89.70;;;;;;21081570;28;20202;-74
2022/06/27 14:08:36;;;;;;;3.67;2.73;;;23.90;90.70;;;;;;21080665;28;20594;-75
2022/06/27 14:18:38;;;;;;;3.30;2.80;;;23.60;91.40;;;;;;21079405;28;20203;-71
2022/06/27 14:28:40;;;;;;;5.73;2.70;;;23.50;91.60;;;;;;21059825;28;20291;-74
2022/06/27 14:38:41;;;;;;;4.17;3.03;;;23.60;90.90;;;;;;21078670;28;20203;-75
2022/06/27 14:48:43;;;;;;;3.57;3.27;;;23.50;90.20;;;;;;21078326;28;20269;-72
2022/06/27 14:58:45;;;;;;;3.37;2.90;;;23.40;88.60;;;;;;21091669;28;20208;-74
2022/06/27 15:08:46;;;;;;;4.93;2.87;;;23.50;88.30;;;;;;21106001;28;20226;-73
2022/06/27 15:18:49;;;;;;;3.00;2.70;;;23.90;86.00;;;;;;21089980;28;20206;-72
2022/06/27 15:28:51;;;;;;;3.87;3.23;;;24.20;82.80;;;;;;21106274;28;20230;-73
2022/06/27 15:38:52;;;;;;;5.20;3.13;;;24.20;82.30;;;;;;21105611;28;20671;-74
2022/06/27 15:48:55;;;;;;;5.27;3.60;;;24.40;82.80;;;;;;21104765;28;20246;-76
2022/06/27 15:58:57;;;;;;;3.80;2.73;;;24.60;82.50;;;;;;21104145;28;20264;-74
2022/06/27 16:09:00;;;;;;;2.63;2.40;;;24.90;80.70;;;;;;21079818;28;20234;-74
2022/06/27 16:19:02;;;;;;;4.23;2.03;;;25.10;80.70;;;;;;21089545;28;20246;-76
2022/06/27 16:29:03;;;;;;;2.20;1.57;;;24.60;79.40;;;;;;21089960;28;20245;-73
2022/06/27 16:39:06;;;;;;;2.27;1.30;;;24.20;75.70;;;;;;21089408;28;20263;-74
2022/06/27 16:49:08;;;;;;;4.00;1.50;;;23.90;70.50;;;;;;21088032;28;20238;-74
2022/06/27 16:59:09;;;;;;;2.70;1.70;;;24.00;70.00;;;;;;21088697;28;20206;-74
2022/06/27 17:09:11;;;;;;;2.40;1.70;;;23.80;71.40;;;;;;21117955;28;20275;-74
2022/06/27 17:19:13;;;;;;;2.57;1.60;;;23.70;72.70;;;;;;21090813;28;20207;-75
2022/06/27 17:29:15;;;;;;;3.57;2.40;;;23.50;74.20;;;;;;21079790;28;20231;-72
2022/06/27 17:39:23;;;;;;;1.93;1.70;;;23.30;76.10;;;;;;21090134;28;20203;-74
2022/06/27 17:49:25;;;;;;;3.07;1.50;;;23.10;78.40;;;;;;21065177;28;20226;-72
2022/06/27 17:59:27;;;;;;;2.03;1.83;;;23.00;79.60;;;;;;21082387;28;20215;-73
2022/06/27 18:09:28;;;;;;;2.33;1.60;;;22.90;81.10;;;;;;21083059;28;20755;-76
2022/06/27 18:19:31;;;;;;;3.77;1.50;;;22.80;82.80;;;;;;21080229;28;20219;-75
2022/06/27 18:29:33;;;;;;;2.10;1.90;;;22.70;85.90;;;;;;21078983;28;20246;-73
2022/06/27 18:39:37;;;;;;;1.80;1.70;;;22.70;89.80;;;;;;21078111;28;20265;-74
2022/06/27 18:49:39;;;;;;;3.57;2.30;;;22.70;90.10;;;;;;21078673;28;20288;-72
2022/06/27 18:59:41;;;;;;;2.17;1.97;;;22.60;90.60;;;;;;21078596;28;20203;-72
2022/06/27 19:09:43;;;;;;;2.60;2.00;;;22.50;90.80;;;;;;21076778;28;20241;-70
2022/06/27 19:19:45;;;;;;;3.57;3.23;;;22.30;91.30;;;;;;21104787;28;20202;-72
2022/06/27 19:29:47;;;;;;;2.20;2.00;;;22.30;91.60;;;;;;21143263;28;20237;-75
2022/06/27 19:39:49;;;;;;;3.50;1.90;;;22.10;92.10;;;;;;21057905;28;20226;-73
2022/06/27 19:49:51;;;;;;;3.00;2.20;;;22.10;92.60;;;;;;21134067;28;20229;-70
2022/06/27 19:59:53;;;;;;;2.13;1.90;;;22.10;92.20;;;;;;21176175;28;20607;-71
2022/06/27 20:09:57;;;;;;;3.47;2.07;;;22.10;92.30;;;;;;21175215;28;20769;-68
2022/06/27 20:20:10;;;;;;;2.87;2.23;;;22.10;92.20;;;;;;21163394;28;20293;-69
2022/06/27 20:30:13;;;;;;;2.67;2.20;;;22.10;92.30;;;;;;21089322;28;20701;-68
2022/06/27 20:40:15;;;;;;;3.23;2.33;;;22.00;92.50;;;;;;21088897;28;20226;-71
2022/06/27 20:50:17;;;;;;;3.47;2.50;;;21.90;92.50;;;;;;21087482;28;20238;-77
2022/06/27 21:00:20;;;;;;;3.83;2.17;;;21.80;92.70;;;;;;21086476;28;20211;-72
2022/06/27 21:20:43;;;;;;;2.20;2.00;;;21.80;92.40;;;;;;21082429;28;20203;-69
2022/06/27 21:30:45;;;;;;;2.50;1.90;;;21.70;92.30;;;;;;21082058;28;20730;-70
2022/06/27 21:40:46;;;;;;;3.50;1.80;;;21.80;92.00;;;;;;21083694;28;20271;-74
2022/06/27 21:50:48;;;;;;;3.87;2.30;;;21.90;91.30;;;;;;21082646;28;20264;-73
2022/06/27 22:00:50;;;;;;;6.57;2.20;;;21.80;91.50;;;;;;21082178;28;20214;-74
2022/06/27 22:10:52;;;;;;;2.53;2.20;;;21.80;91.70;;;;;;21081085;28;20811;-74
2022/06/27 22:20:55;;;;;;;5.47;2.27;;;21.70;92.00;;;;;;21069248;28;20742;-78
2022/06/27 22:30:57;;;;;;;3.27;2.43;;;21.60;92.40;;;;;;21081500;28;20241;-71
2022/06/27 22:40:58;;;;;;;4.43;2.67;;;21.60;92.60;;;;;;21078940;28;20230;-71
2022/06/27 22:51:00;;;;;;;3.93;2.37;;;21.20;93.00;;;;;;21079062;28;20639;-69
2022/06/27 23:01:02;;;;;;;2.53;2.30;;;21.10;93.50;;;;;;21079256;28;20618;-68
2022/06/27 23:11:04;;;;;;;4.17;2.50;;;20.90;93.80;;;;;;21087056;28;20305;-73
2022/06/27 23:21:05;;;;;;;17.73;2.67;;;20.70;94.00;;;;;;21087725;28;20262;-72
2022/06/27 23:31:08;;;;;;;4.00;2.30;;;20.60;94.50;;;;;;21094283;28;20697;-72
2022/06/27 23:41:09;;;;;;;8.70;2.33;;;20.40;94.90;;;;;;21092716;28;20284;-74
2022/06/27 23:51:11;;;;;;;2.40;2.20;;;20.20;95.00;;;;;;21074129;28;20230;-72
